Time;durP1;ratioP1;P1;durP2;ratioP2;P2;SDS_P1;SDS_P2;PMS_P1;PMS_P2;Temp;Humidity;BMP_temperature;BMP_pressure;BME280_temperature;BME280_humidity;BME280_pressure;Samples;Min_cycle;Max_cycle;Signal;HPM_P1;HPM_P2
2023/03/31 00:00:48;;;;;;;;;;;;;;;;;;5131358;27;20708;-80
2023/03/31 00:03:20;;;;;;;;;;;;;;;;;;5135809;27;19962;-79
2023/03/31 00:05:47;;;;;;;;;;;;;;;;;;5100978;27;19942;-78
2023/03/31 00:08:12;;;;;;;;;;;;;;;;;;5112191;27;19927;-79
2023/03/31 00:10:41;;;;;;;;;;;;;;;;;;5135211;27;19931;-78
2023/03/31 00:13:07;;;;;;;;;;;;;;;;;;5117104;27;19938;-78
2023/03/31 00:15:33;;;;;;;;;;;;;;;;;;5109423;27;19956;-79
2023/03/31 00:17:59;;;;;;;;;;;;;;;;;;5100080;27;21002;-78
2023/03/31 00:20:25;;;;;;;;;;;;;;;;;;5114663;27;19996;-79
2023/03/31 00:22:53;;;;;;;;;;;;;;;;;;5120014;27;19933;-78
2023/03/31 00:25:19;;;;;;;;;;;;;;;;;;5116408;27;19927;-77
2023/03/31 00:27:45;;;;;;;;;;;;;;;;;;5116079;27;21051;-77
2023/03/31 00:30:11;;;;;;;;;;;;;;;;;;5138004;27;20035;-78
2023/03/31 00:32:37;;;;;;;;;;;;;;;;;;5118444;27;19923;-79
2023/03/31 00:35:03;;;;;;;;;;;;;;;;;;5103979;27;19934;-80
2023/03/31 00:37:29;;;;;;;;;;;;;;;;;;5103715;27;19928;-79
2023/03/31 00:39:55;;;;;;;;;;;;;;;;;;5135281;27;19932;-79
2023/03/31 00:42:21;;;;;;;;;;;;;;;;;;5135762;27;19945;-79
2023/03/31 00:44:46;;;;;;;;;;;;;;;;;;5135726;27;20651;-77
2023/03/31 00:47:12;;;;;;;;;;;;;;;;;;5121578;27;19923;-78
2023/03/31 00:49:43;;;;;;;;;;;;;;;;;;5118944;27;19966;-78
2023/03/31 00:52:09;;;;;;;;;;;;;;;;;;5117730;27;19934;-77
2023/03/31 00:54:35;;;;;;;;;;;;;;;;;;5117741;27;19927;-79
2023/03/31 00:57:02;;;;;;;;;;;;;;;;;;5118967;27;19923;-78
2023/03/31 00:59:28;;;;;;;;;;;;;;;;;;5139922;27;19927;-78
2023/03/31 01:01:54;;;;;;;;;;;;;;;;;;5143670;27;19930;-78
2023/03/31 01:04:23;;;;;;;;;;;;;;;;;;5121217;27;20551;-79
2023/03/31 01:06:49;;;;;;;;;;;;;;;;;;5138647;27;19930;-79
2023/03/31 01:09:15;;;;;;;;;;;;;;;;;;5126124;27;19944;-80
2023/03/31 01:11:41;;;;;;;;;;;;;;;;;;5105308;27;20598;-78
2023/03/31 01:14:08;;;;;;;;;;;;;;;;;;5124172;27;20065;-80
2023/03/31 01:16:34;;;;;;;;;;;;;;;;;;5121881;27;19934;-80
2023/03/31 01:19:01;;;;;;;;;;;;;;;;;;5103583;27;19927;-81
2023/03/31 01:21:30;;;;;;;;;;;;;;;;;;5137175;27;19927;-80
2023/03/31 01:23:56;;;;;;;;;;;;;;;;;;5133683;27;20026;-80
2023/03/31 01:26:22;;;;;;;;;;;;;;;;;;5134295;27;20006;-77
2023/03/31 01:28:48;;;;;;;;;;;;;;;;;;5115119;27;19926;-77
2023/03/31 01:31:14;;;;;;;;;;;;;;;;;;5137590;27;19939;-79
2023/03/31 01:33:40;;;;;;;;;;;;;;;;;;5136441;27;20587;-80
2023/03/31 01:36:07;;;;;;;;;;;;;;;;;;5137668;27;19927;-80
2023/03/31 01:38:32;;;;;;;;;;;;;;;;;;5137800;27;19958;-78
2023/03/31 01:40:58;;;;;;;;;;;;;;;;;;5128336;27;19986;-80
2023/03/31 01:43:25;;;;;;;;;;;;;;;;;;5111328;27;19935;-80
2023/03/31 01:45:50;;;;;;;;;;;;;;;;;;5120008;27;19926;-79
2023/03/31 01:48:20;;;;;;;;;;;;;;;;;;5134326;27;20719;-81
2023/03/31 01:50:46;;;;;;;;;;;;;;;;;;5116857;27;20594;-80
2023/03/31 01:53:12;;;;;;;;;;;;;;;;;;5117686;27;19923;-80
2023/03/31 01:55:38;;;;;;;;;;;;;;;;;;5118253;27;19968;-80
2023/03/31 01:58:03;;;;;;;;;;;;;;;;;;5137575;27;19962;-79
2023/03/31 02:03:06;;;;;;;;;;;;;;;;;;5298687;22;20964;-79
2023/03/31 02:05:32;;;;;;;;;;;;;;;;;;5029027;28;19929;-77
2023/03/31 02:07:58;;;;;;;;;;;;;;;;;;5030492;28;19931;-79
2023/03/31 02:10:24;;;;;;;;;;;;;;;;;;5030600;28;20403;-79
2023/03/31 02:12:50;;;;;;;;;;;;;;;;;;5038654;28;19927;-79
2023/03/31 02:15:17;;;;;;;;;;;;;;;;;;5035726;28;19928;-80
2023/03/31 02:17:44;;;;;;;;;;;;;;;;;;5033711;28;20015;-77
2023/03/31 02:20:10;;;;;;;;;;;;;;;;;;5039145;28;20023;-81
2023/03/31 02:22:36;;;;;;;;;;;;;;;;;;5059200;28;20403;-79
2023/03/31 02:25:02;;;;;;;;;;;;;;;;;;5047559;28;19929;-77
2023/03/31 02:27:28;;;;;;;;;;;;;;;;;;5059260;28;19929;-80
2023/03/31 02:29:54;;;;;;;;;;;;;;;;;;5051555;28;20470;-79
2023/03/31 02:32:20;;;;;;;;;;;;;;;;;;5014185;28;19924;-76
2023/03/31 02:34:46;;;;;;;;;;;;;;;;;;5059819;28;19940;-76
2023/03/31 02:37:12;;;;;;;;;;;;;;;;;;5045186;28;20568;-77
2023/03/31 02:39:38;;;;;;;;;;;;;;;;;;5037725;28;19933;-77
2023/03/31 02:42:06;;;;;;;;;;;;;;;;;;5046507;28;20119;-77
2023/03/31 02:44:32;;;;;;;;;;;;;;;;;;5037117;28;19929;-79
2023/03/31 02:46:57;;;;;;;;;;;;;;;;;;5040348;28;19974;-78
2023/03/31 02:49:23;;;;;;;;;;;;;;;;;;5032379;28;20434;-76
2023/03/31 02:51:50;;;;;;;;;;;;;;;;;;5051929;28;19929;-78
2023/03/31 02:54:16;;;;;;;;;;;;;;;;;;5035224;28;19977;-79
2023/03/31 02:56:42;;;;;;;;;;;;;;;;;;5027937;28;19933;-78
2023/03/31 02:59:08;;;;;;;;;;;;;;;;;;5060189;28;19978;-80
2023/03/31 03:01:33;;;;;;;;;;;;;;;;;;5031778;28;20552;-76
2023/03/31 03:03:59;;;;;;;;;;;;;;;;;;5054897;28;19959;-76
2023/03/31 03:06:26;;;;;;;;;;;;;;;;;;5035137;28;19932;-78
2023/03/31 03:08:54;;;;;;;;;;;;;;;;;;5014602;28;20019;-78
2023/03/31 03:11:20;;;;;;;;;;;;;;;;;;5048764;28;19998;-78
2023/03/31 03:13:46;;;;;;;;;;;;;;;;;;5028054;28;20705;-80
2023/03/31 03:16:12;;;;;;;;;;;;;;;;;;5017420;28;19928;-78
2023/03/31 03:18:38;;;;;;;;;;;;;;;;;;5038044;28;19984;-79
2023/03/31 03:21:04;;;;;;;;;;;;;;;;;;5026062;28;19928;-78
2023/03/31 03:23:31;;;;;;;;;;;;;;;;;;5039460;28;20492;-80
2023/03/31 03:25:57;;;;;;;;;;;;;;;;;;5048632;28;19936;-79
2023/03/31 03:28:23;;;;;;;;;;;;;;;;;;5032941;28;19928;-80
2023/03/31 03:30:50;;;;;;;;;;;;;;;;;;5015180;28;19929;-80
2023/03/31 03:33:16;;;;;;;;;;;;;;;;;;5048419;28;20853;-80
2023/03/31 03:35:41;;;;;;;;;;;;;;;;;;5060085;28;19951;-80
2023/03/31 03:38:07;;;;;;;;;;;;;;;;;;5031089;28;20339;-81
2023/03/31 03:40:33;;;;;;;;;;;;;;;;;;5049991;28;19936;-80
2023/03/31 03:42:59;;;;;;;;;;;;;;;;;;5033143;28;19929;-80
2023/03/31 03:45:25;;;;;;;;;;;;;;;;;;5026998;28;20807;-79
2023/03/31 03:47:51;;;;;;;;;;;;;;;;;;5046425;28;19964;-80
2023/03/31 03:50:17;;;;;;;;;;;;;;;;;;5017100;28;19976;-81
2023/03/31 03:52:43;;;;;;;;;;;;;;;;;;5016843;28;19979;-78
2023/03/31 03:55:10;;;;;;;;;;;;;;;;;;5009558;28;19928;-80
2023/03/31 03:57:36;;;;;;;;;;;;;;;;;;5014746;28;20020;-80
2023/03/31 04:00:08;;;;;;;;;;;;;;;;;;5037764;28;20015;-76
2023/03/31 04:02:34;;;;;;;;;;;;;;;;;;5050156;28;19928;-80
2023/03/31 04:05:00;;;;;;;;;;;;;;;;;;5037343;28;19925;-78
2023/03/31 04:07:26;;;;;;;;;;;;;;;;;;5031986;28;19921;-79
2023/03/31 04:09:52;;;;;;;;;;;;;;;;;;5017560;28;19996;-80
2023/03/31 04:12:18;;;;;;;;;;;;;;;;;;5027722;28;19952;-80
2023/03/31 04:14:44;;;;;;;;;;;;;;;;;;5036885;28;19931;-79
2023/03/31 04:17:14;;;;;;;;;;;;;;;;;;5028464;28;19924;-79
2023/03/31 04:19:41;;;;;;;;;;;;;;;;;;5029310;28;19935;-78
2023/03/31 04:22:10;;;;;;;;;;;;;;;;;;5006926;28;19928;-78
2023/03/31 04:24:37;;;;;;;;;;;;;;;;;;5035977;28;19970;-79
2023/03/31 04:27:06;;;;;;;;;;;;;;;;;;5035665;28;19931;-79
2023/03/31 04:29:32;;;;;;;;;;;;;;;;;;5031291;28;19928;-78
2023/03/31 04:31:58;;;;;;;;;;;;;;;;;;5048659;28;19929;-78
2023/03/31 04:34:25;;;;;;;;;;;;;;;;;;5029293;28;19929;-77
2023/03/31 04:36:54;;;;;;;;;;;;;;;;;;5037671;28;19937;-80
2023/03/31 04:39:25;;;;;;;;;;;;;;;;;;5028333;28;19925;-80
2023/03/31 04:41:51;;;;;;;;;;;;;;;;;;5028999;28;19940;-80
2023/03/31 04:44:17;;;;;;;;;;;;;;;;;;5035240;28;19928;-80
2023/03/31 04:46:43;;;;;;;;;;;;;;;;;;5019235;28;20367;-80
2023/03/31 04:49:09;;;;;;;;;;;;;;;;;;5034894;28;19925;-79
2023/03/31 04:51:35;;;;;;;;;;;;;;;;;;5034663;28;19928;-78
2023/03/31 04:54:01;;;;;;;;;;;;;;;;;;5033041;28;19982;-76
2023/03/31 04:56:27;;;;;;;;;;;;;;;;;;5031111;28;19983;-78
2023/03/31 04:58:52;;;;;;;;;;;;;;;;;;5049483;28;20169;-79
2023/03/31 05:01:18;;;;;;;;;;;;;;;;;;5026841;28;19935;-79
2023/03/31 05:03:46;;;;;;;;;;;;;;;;;;5035006;28;19931;-80
2023/03/31 05:06:12;;;;;;;;;;;;;;;;;;5010202;28;20427;-80
2023/03/31 05:08:38;;;;;;;;;;;;;;;;;;5058400;28;19928;-79
2023/03/31 05:11:05;;;;;;;;;;;;;;;;;;5046729;28;19935;-79
2023/03/31 05:13:31;;;;;;;;;;;;;;;;;;5026924;28;19929;-76
2023/03/31 05:15:58;;;;;;;;;;;;;;;;;;5052505;28;20636;-78
2023/03/31 05:18:24;;;;;;;;;;;;;;;;;;5036034;28;20030;-79
2023/03/31 05:20:50;;;;;;;;;;;;;;;;;;5035347;28;20456;-78
2023/03/31 05:23:16;;;;;;;;;;;;;;;;;;5047093;28;19982;-79
2023/03/31 05:25:42;;;;;;;;;;;;;;;;;;5049301;28;20309;-78
2023/03/31 05:28:11;;;;;;;;;;;;;;;;;;5030223;28;19964;-78
2023/03/31 05:30:37;;;;;;;;;;;;;;;;;;5035192;28;19931;-76
2023/03/31 05:33:21;;;;;;;;;;;;;;;;;;5055235;28;19928;-79
2023/03/31 05:35:47;;;;;;;;;;;;;;;;;;5049895;28;19933;-80
2023/03/31 05:38:13;;;;;;;;;;;;;;;;;;5018053;28;20449;-79
2023/03/31 05:40:39;;;;;;;;;;;;;;;;;;5038944;28;20006;-78
2023/03/31 05:43:05;;;;;;;;;;;;;;;;;;5031830;28;19928;-79
2023/03/31 05:45:31;;;;;;;;;;;;;;;;;;5038329;28;20394;-78
2023/03/31 05:47:57;;;;;;;;;;;;;;;;;;5044638;28;19932;-79
2023/03/31 05:50:23;;;;;;;;;;;;;;;;;;5048256;28;19967;-79
2023/03/31 05:52:49;;;;;;;;;;;;;;;;;;5032604;28;19925;-79
2023/03/31 05:55:14;;;;;;;;;;;;;;;;;;5035459;28;19924;-76
2023/03/31 05:57:40;;;;;;;;;;;;;;;;;;5021792;28;19955;-78
2023/03/31 06:00:09;;;;;;;;;;;;;;;;;;5034457;28;19932;-78
2023/03/31 06:02:35;;;;;;;;;;;;;;;;;;5031454;28;20030;-79
2023/03/31 06:05:01;;;;;;;;;;;;;;;;;;5049117;28;19981;-79
2023/03/31 06:07:27;;;;;;;;;;;;;;;;;;5032241;28;19936;-78
2023/03/31 06:09:53;;;;;;;;;;;;;;;;;;5025311;28;20872;-79
2023/03/31 06:12:19;;;;;;;;;;;;;;;;;;5034703;28;19932;-78
2023/03/31 06:14:45;;;;;;;;;;;;;;;;;;5029690;28;19932;-79
2023/03/31 06:17:11;;;;;;;;;;;;;;;;;;5032269;28;19924;-80
2023/03/31 06:19:37;;;;;;;;;;;;;;;;;;5052652;28;19928;-78
2023/03/31 06:22:03;;;;;;;;;;;;;;;;;;5047548;28;19964;-78
2023/03/31 06:24:29;;;;;;;;;;;;;;;;;;5041067;28;19973;-78
2023/03/31 06:26:54;;;;;;;;;;;;;;;;;;5032449;28;19997;-78
2023/03/31 06:29:20;;;;;;;;;;;;;;;;;;5052231;28;19925;-78
2023/03/31 06:31:46;;;;;;;;;;;;;;;;;;5046846;28;19932;-77
2023/03/31 06:34:12;;;;;;;;;;;;;;;;;;5025729;28;19932;-78
2023/03/31 06:36:38;;;;;;;;;;;;;;;;;;5033898;28;20529;-77
2023/03/31 06:39:04;;;;;;;;;;;;;;;;;;5032999;28;20307;-77
2023/03/31 06:41:30;;;;;;;;;;;;;;;;;;5026318;28;20533;-77
2023/03/31 06:43:56;;;;;;;;;;;;;;;;;;5035769;28;19933;-78
2023/03/31 06:46:22;;;;;;;;;;;;;;;;;;5030939;28;19967;-78
2023/03/31 06:48:48;;;;;;;;;;;;;;;;;;5032576;28;20404;-79
2023/03/31 06:51:14;;;;;;;;;;;;;;;;;;5023416;28;20010;-77
2023/03/31 06:53:40;;;;;;;;;;;;;;;;;;5033135;28;19933;-77
2023/03/31 06:56:06;;;;;;;;;;;;;;;;;;5016145;28;19972;-77
2023/03/31 06:58:32;;;;;;;;;;;;;;;;;;5011093;28;20639;-78
2023/03/31 07:00:58;;;;;;;;;;;;;;;;;;5014064;28;19925;-77
2023/03/31 07:03:24;;;;;;;;;;;;;;;;;;5031188;28;19933;-76
2023/03/31 07:05:50;;;;;;;;;;;;;;;;;;5029338;28;20880;-77
2023/03/31 07:08:16;;;;;;;;;;;;;;;;;;5009153;28;19994;-75
2023/03/31 07:10:45;;;;;;;;;;;;;;;;;;5045756;28;19924;-76
2023/03/31 07:13:11;;;;;;;;;;;;;;;;;;5045205;28;19939;-76
2023/03/31 07:15:37;;;;;;;;;;;;;;;;;;5008298;28;19933;-77
2023/03/31 07:18:03;;;;;;;;;;;;;;;;;;5032662;28;20477;-77
2023/03/31 07:20:29;;;;;;;;;;;;;;;;;;5023838;28;19929;-76
2023/03/31 07:22:55;;;;;;;;;;;;;;;;;;5041847;28;19925;-77
2023/03/31 07:25:21;;;;;;;;;;;;;;;;;;5009012;28;20034;-77
2023/03/31 07:27:47;;;;;;;;;;;;;;;;;;5025665;28;20054;-76
2023/03/31 07:30:13;;;;;;;;;;;;;;;;;;5027291;28;19929;-77
2023/03/31 07:32:40;;;;;;;;;;;;;;;;;;5015813;28;20497;-78
2023/03/31 07:35:05;;;;;;;;;;;;;;;;;;5027927;28;20458;-77
2023/03/31 07:37:31;;;;;;;;;;;;;;;;;;5046613;28;19930;-77
2023/03/31 07:39:57;;;;;;;;;;;;;;;;;;5032950;28;19936;-77
2023/03/31 07:42:23;;;;;;;;;;;;;;;;;;5025128;28;19929;-77
2023/03/31 07:44:50;;;;;;;;;;;;;;;;;;5044541;28;19924;-76
2023/03/31 07:47:16;;;;;;;;;;;;;;;;;;5044512;28;20015;-76
2023/03/31 07:49:42;;;;;;;;;;;;;;;;;;5012752;28;19932;-77
2023/03/31 07:52:07;;;;;;;;;;;;;;;;;;5027251;28;19932;-76
2023/03/31 07:54:33;;;;;;;;;;;;;;;;;;5045174;28;19932;-78
2023/03/31 07:57:03;;;;;;;;;;;;;;;;;;5015972;28;20007;-77
2023/03/31 07:59:29;;;;;;;;;;;;;;;;;;5049853;28;19978;-76
2023/03/31 08:01:55;;;;;;;;;;;;;;;;;;5035952;28;19933;-77
2023/03/31 08:04:22;;;;;;;;;;;;;;;;;;4996329;28;20273;-76
2023/03/31 08:06:47;;;;;;;;;;;;;;;;;;5016633;28;19951;-77
2023/03/31 08:09:14;;;;;;;;;;;;;;;;;;5007225;28;19952;-77
2023/03/31 08:11:43;;;;;;;;;;;;;;;;;;5011133;28;19951;-75
2023/03/31 08:14:09;;;;;;;;;;;;;;;;;;5008737;28;20464;-75
2023/03/31 08:16:35;;;;;;;;;;;;;;;;;;4993119;28;19928;-76
2023/03/31 08:19:00;;;;;;;;;;;;;;;;;;5011953;28;19940;-78
2023/03/31 08:21:26;;;;;;;;;;;;;;;;;;5010174;28;20012;-76
2023/03/31 08:23:52;;;;;;;;;;;;;;;;;;5029663;28;19935;-77
2023/03/31 08:26:18;;;;;;;;;;;;;;;;;;5021521;28;19925;-76
2023/03/31 08:28:44;;;;;;;;;;;;;;;;;;5029768;28;19925;-78
2023/03/31 08:31:11;;;;;;;;;;;;;;;;;;5023650;28;20620;-79
2023/03/31 08:33:37;;;;;;;;;;;;;;;;;;5025521;28;19987;-79
2023/03/31 08:36:03;;;;;;;;;;;;;;;;;;5010521;28;19936;-78
2023/03/31 08:38:29;;;;;;;;;;;;;;;;;;5021579;28;19960;-77
2023/03/31 08:40:55;;;;;;;;;;;;;;;;;;5010358;28;19929;-78
2023/03/31 08:43:21;;;;;;;;;;;;;;;;;;5026546;28;19932;-77
2023/03/31 08:45:47;;;;;;;;;;;;;;;;;;5012751;28;20662;-78
2023/03/31 08:48:13;;;;;;;;;;;;;;;;;;5013243;28;20466;-77
2023/03/31 08:50:39;;;;;;;;;;;;;;;;;;5010894;28;20464;-78
2023/03/31 08:53:05;;;;;;;;;;;;;;;;;;5014362;28;19929;-80
2023/03/31 08:55:31;;;;;;;;;;;;;;;;;;5032552;28;20012;-79
2023/03/31 08:57:57;;;;;;;;;;;;;;;;;;5010417;28;19936;-78
2023/03/31 09:00:23;;;;;;;;;;;;;;;;;;5032990;28;19929;-80
2023/03/31 09:02:49;;;;;;;;;;;;;;;;;;5019870;28;20058;-80
2023/03/31 09:05:15;;;;;;;;;;;;;;;;;;5030818;28;19940;-78
2023/03/31 09:07:41;;;;;;;;;;;;;;;;;;5028759;28;19917;-80
2023/03/31 09:10:06;;;;;;;;;;;;;;;;;;5030784;28;19959;-80
2023/03/31 09:12:32;;;;;;;;;;;;;;;;;;5013793;28;19982;-79
2023/03/31 09:15:00;;;;;;;;;;;;;;;;;;5030172;28;20507;-81
2023/03/31 09:17:25;;;;;;;;;;;;;;;;;;5020904;28;20011;-81
2023/03/31 09:19:51;;;;;;;;;;;;;;;;;;5026795;28;20019;-80
2023/03/31 09:22:17;;;;;;;;;;;;;;;;;;5028353;28;19924;-80
2023/03/31 09:24:43;;;;;;;;;;;;;;;;;;5030749;28;19928;-80
2023/03/31 09:27:09;;;;;;;;;;;;;;;;;;5039612;28;20525;-81
2023/03/31 09:29:35;;;;;;;;;;;;;;;;;;5025253;28;20011;-79
2023/03/31 09:32:01;;;;;;;;;;;;;;;;;;5031132;28;19974;-80
2023/03/31 09:34:27;;;;;;;;;;;;;;;;;;5035433;28;20025;-80
2023/03/31 09:36:53;;;;;;;;;;;;;;;;;;5021576;28;19928;-81
2023/03/31 09:39:19;;;;;;;;;;;;;;;;;;5029406;28;20019;-81
2023/03/31 09:41:45;;;;;;;;;;;;;;;;;;5030468;28;20723;-80
2023/03/31 09:44:11;;;;;;;;;;;;;;;;;;5053751;28;19936;-80
2023/03/31 09:46:37;;;;;;;;;;;;;;;;;;5026810;28;20435;-80
2023/03/31 09:49:04;;;;;;;;;;;;;;;;;;5030845;28;19936;-82
2023/03/31 09:51:31;;;;;;;;;;;;;;;;;;5051558;28;19970;-80
2023/03/31 09:53:57;;;;;;;;;;;;;;;;;;5047339;28;19928;-81
2023/03/31 09:56:23;;;;;;;;;;;;;;;;;;5010533;28;19952;-80
2023/03/31 09:58:49;;;;;;;;;;;;;;;;;;5017362;28;19942;-80
2023/03/31 10:01:15;;;;;;;;;;;;;;;;;;5030899;28;20387;-81
2023/03/31 10:03:40;;;;;;;;;;;;;;;;;;5029526;28;19940;-81
2023/03/31 10:06:06;;;;;;;;;;;;;;;;;;5029916;28;19983;-81
2023/03/31 10:08:32;;;;;;;;;;;;;;;;;;5060614;28;20442;-81
2023/03/31 10:11:00;;;;;;;;;;;;;;;;;;5016095;28;19939;-78
2023/03/31 10:13:28;;;;;;;;;;;;;;;;;;5027666;28;20371;-80
2023/03/31 10:15:54;;;;;;;;;;;;;;;;;;5041598;28;19933;-80
2023/03/31 10:18:19;;;;;;;;;;;;;;;;;;5038649;28;20288;-81
2023/03/31 10:20:45;;;;;;;;;;;;;;;;;;5015820;28;20023;-79
2023/03/31 10:23:11;;;;;;;;;;;;;;;;;;5030627;28;20441;-80
2023/03/31 10:25:37;;;;;;;;;;;;;;;;;;5037011;28;19937;-79
2023/03/31 10:28:03;;;;;;;;;;;;;;;;;;5033254;28;20031;-81
2023/03/31 10:30:29;;;;;;;;;;;;;;;;;;5038743;28;20591;-80
2023/03/31 10:32:55;;;;;;;;;;;;;;;;;;5032637;28;19939;-81
2023/03/31 10:35:21;;;;;;;;;;;;;;;;;;5030198;28;19932;-79
2023/03/31 10:37:47;;;;;;;;;;;;;;;;;;5017362;28;20721;-81
2023/03/31 10:40:13;;;;;;;;;;;;;;;;;;5062942;28;19967;-79
2023/03/31 10:42:39;;;;;;;;;;;;;;;;;;5057011;28;19928;-80
2023/03/31 10:45:05;;;;;;;;;;;;;;;;;;5019007;28;20430;-79
2023/03/31 10:47:31;;;;;;;;;;;;;;;;;;5033689;28;20528;-78
2023/03/31 10:49:57;;;;;;;;;;;;;;;;;;5032306;28;19925;-79
2023/03/31 10:52:23;;;;;;;;;;;;;;;;;;5025260;28;19928;-81
2023/03/31 10:54:49;;;;;;;;;;;;;;;;;;5039689;28;19928;-80
2023/03/31 10:57:18;;;;;;;;;;;;;;;;;;5034705;28;19973;-79
2023/03/31 10:59:44;;;;;;;;;;;;;;;;;;5014786;28;19932;-80
2023/03/31 11:02:10;;;;;;;;;;;;;;;;;;5042638;28;20360;-79
2023/03/31 11:04:36;;;;;;;;;;;;;;;;;;5021258;28;19924;-80
2023/03/31 11:07:01;;;;;;;;;;;;;;;;;;5051901;28;19925;-79
2023/03/31 11:09:27;;;;;;;;;;;;;;;;;;5023274;28;19978;-79
2023/03/31 11:11:53;;;;;;;;;;;;;;;;;;5038830;28;19928;-80
2023/03/31 11:14:19;;;;;;;;;;;;;;;;;;5038216;28;19958;-80
2023/03/31 11:16:45;;;;;;;;;;;;;;;;;;5032078;28;19932;-80
2023/03/31 11:19:11;;;;;;;;;;;;;;;;;;5037133;28;19928;-80
2023/03/31 11:21:37;;;;;;;;;;;;;;;;;;5033421;28;20025;-77
2023/03/31 11:24:03;;;;;;;;;;;;;;;;;;5036111;28;19932;-76
2023/03/31 11:26:29;;;;;;;;;;;;;;;;;;5034192;28;19939;-79
2023/03/31 11:28:55;;;;;;;;;;;;;;;;;;5017645;28;19928;-78
2023/03/31 11:31:21;;;;;;;;;;;;;;;;;;5043836;28;20284;-77
2023/03/31 11:33:47;;;;;;;;;;;;;;;;;;5031918;28;19935;-80
2023/03/31 11:36:13;;;;;;;;;;;;;;;;;;5045233;28;19932;-79
2023/03/31 11:38:39;;;;;;;;;;;;;;;;;;5034043;28;19928;-79
2023/03/31 11:41:05;;;;;;;;;;;;;;;;;;5042246;28;21088;-78
2023/03/31 11:43:31;;;;;;;;;;;;;;;;;;5036526;28;19925;-79
2023/03/31 11:45:57;;;;;;;;;;;;;;;;;;5032945;28;19935;-77
2023/03/31 11:48:23;;;;;;;;;;;;;;;;;;5017070;28;19929;-79
2023/03/31 11:50:49;;;;;;;;;;;;;;;;;;5020122;28;19936;-79
2023/03/31 11:53:15;;;;;;;;;;;;;;;;;;5041701;28;19931;-78
2023/03/31 11:55:41;;;;;;;;;;;;;;;;;;5051963;28;19978;-80
2023/03/31 11:58:07;;;;;;;;;;;;;;;;;;5038510;28;20577;-79
2023/03/31 12:00:33;;;;;;;;;;;;;;;;;;5037322;28;19929;-79
2023/03/31 12:02:59;;;;;;;;;;;;;;;;;;5036184;28;20297;-79
2023/03/31 12:05:25;;;;;;;;;;;;;;;;;;5040001;28;19936;-80
2023/03/31 12:07:51;;;;;;;;;;;;;;;;;;5022937;28;19925;-79
2023/03/31 12:10:17;;;;;;;;;;;;;;;;;;5033424;28;19932;-80
2023/03/31 12:12:42;;;;;;;;;;;;;;;;;;5024554;28;19929;-80
2023/03/31 12:15:08;;;;;;;;;;;;;;;;;;5031186;28;19975;-79
2023/03/31 12:17:36;;;;;;;;;;;;;;;;;;5010576;28;20400;-79
2023/03/31 12:20:09;;;;;;;;;;;;;;;;;;5059146;28;19931;-79
2023/03/31 12:22:35;;;;;;;;;;;;;;;;;;5029766;28;20273;-80
2023/03/31 12:25:01;;;;;;;;;;;;;;;;;;5026684;28;19929;-79
2023/03/31 12:27:27;;;;;;;;;;;;;;;;;;5043049;28;19929;-79
2023/03/31 12:29:53;;;;;;;;;;;;;;;;;;5036750;28;19924;-79
2023/03/31 12:32:19;;;;;;;;;;;;;;;;;;5043758;28;19929;-78
2023/03/31 12:34:45;;;;;;;;;;;;;;;;;;5030579;28;19929;-79
2023/03/31 12:37:11;;;;;;;;;;;;;;;;;;5046054;28;19929;-79
2023/03/31 12:39:37;;;;;;;;;;;;;;;;;;5037704;28;20302;-79
2023/03/31 12:42:03;;;;;;;;;;;;;;;;;;5035818;28;19929;-78
2023/03/31 12:44:29;;;;;;;;;;;;;;;;;;5028860;28;19933;-80
2023/03/31 12:46:55;;;;;;;;;;;;;;;;;;5027730;28;19928;-79
2023/03/31 12:49:21;;;;;;;;;;;;;;;;;;5059249;28;20001;-80
2023/03/31 12:51:47;;;;;;;;;;;;;;;;;;5026615;28;20602;-80
2023/03/31 12:54:13;;;;;;;;;;;;;;;;;;5045441;28;19933;-79
2023/03/31 12:56:40;;;;;;;;;;;;;;;;;;5029934;28;19935;-79
2023/03/31 12:59:05;;;;;;;;;;;;;;;;;;5060294;28;20674;-80
2023/03/31 13:01:31;;;;;;;;;;;;;;;;;;5027052;28;19929;-79
2023/03/31 13:03:57;;;;;;;;;;;;;;;;;;5045483;28;19935;-79
2023/03/31 13:06:23;;;;;;;;;;;;;;;;;;5018673;28;20541;-79
2023/03/31 13:08:49;;;;;;;;;;;;;;;;;;5022598;28;20020;-79
2023/03/31 13:11:15;;;;;;;;;;;;;;;;;;5022964;28;19928;-79
2023/03/31 13:13:41;;;;;;;;;;;;;;;;;;5046601;28;20382;-79
2023/03/31 13:16:07;;;;;;;;;;;;;;;;;;5045597;28;20350;-79
2023/03/31 13:18:33;;;;;;;;;;;;;;;;;;5031068;28;20624;-79
2023/03/31 13:20:59;;;;;;;;;;;;;;;;;;5042865;28;20022;-79
2023/03/31 13:23:25;;;;;;;;;;;;;;;;;;5027908;28;20019;-78
2023/03/31 13:25:51;;;;;;;;;;;;;;;;;;5041803;28;19935;-79
2023/03/31 13:28:17;;;;;;;;;;;;;;;;;;5019689;28;19924;-79
2023/03/31 13:30:42;;;;;;;;;;;;;;;;;;5033408;28;20389;-79
2023/03/31 13:33:11;;;;;;;;;;;;;;;;;;5052564;28;19935;-78
2023/03/31 13:35:37;;;;;;;;;;;;;;;;;;5022218;28;19935;-78
2023/03/31 13:38:03;;;;;;;;;;;;;;;;;;5030690;28;19932;-79
2023/03/31 13:40:29;;;;;;;;;;;;;;;;;;5027460;28;19983;-79
2023/03/31 13:42:55;;;;;;;;;;;;;;;;;;5027518;28;19933;-78
2023/03/31 13:45:21;;;;;;;;;;;;;;;;;;5034151;28;20776;-79
2023/03/31 13:47:47;;;;;;;;;;;;;;;;;;5013755;28;19924;-79
2023/03/31 13:50:13;;;;;;;;;;;;;;;;;;5023105;28;19933;-80
2023/03/31 13:52:39;;;;;;;;;;;;;;;;;;5024708;28;19936;-79
2023/03/31 13:55:05;;;;;;;;;;;;;;;;;;5029400;28;19974;-79
2023/03/31 13:57:31;;;;;;;;;;;;;;;;;;5030497;28;19967;-79
2023/03/31 13:59:57;;;;;;;;;;;;;;;;;;5038093;28;19968;-79
2023/03/31 14:02:23;;;;;;;;;;;;;;;;;;5030677;28;19937;-78
2023/03/31 14:04:49;;;;;;;;;;;;;;;;;;5021950;28;19947;-79
2023/03/31 14:07:15;;;;;;;;;;;;;;;;;;5030243;28;19951;-78
2023/03/31 14:09:45;;;;;;;;;;;;;;;;;;5023771;28;19936;-79
2023/03/31 14:12:11;;;;;;;;;;;;;;;;;;5036035;28;20330;-79
2023/03/31 14:14:37;;;;;;;;;;;;;;;;;;5042974;28;19941;-79
2023/03/31 14:17:03;;;;;;;;;;;;;;;;;;5045117;28;19946;-79
2023/03/31 14:19:29;;;;;;;;;;;;;;;;;;5052629;28;20402;-79
2023/03/31 14:21:55;;;;;;;;;;;;;;;;;;5036019;28;19935;-79
2023/03/31 14:24:21;;;;;;;;;;;;;;;;;;5031587;28;19928;-79
2023/03/31 14:26:47;;;;;;;;;;;;;;;;;;5022755;28;19973;-79
2023/03/31 14:29:13;;;;;;;;;;;;;;;;;;5043849;28;20019;-79
2023/03/31 14:31:39;;;;;;;;;;;;;;;;;;5021395;28;20019;-81
2023/03/31 14:34:07;;;;;;;;;;;;;;;;;;5042759;28;19978;-79
2023/03/31 14:36:32;;;;;;;;;;;;;;;;;;5043462;28;20015;-79
2023/03/31 14:38:59;;;;;;;;;;;;;;;;;;5062860;28;19929;-79
2023/03/31 14:41:28;;;;;;;;;;;;;;;;;;5015283;28;20796;-79
2023/03/31 14:43:56;;;;;;;;;;;;;;;;;;5026550;28;20185;-79
2023/03/31 14:46:22;;;;;;;;;;;;;;;;;;5041190;28;20589;-79
2023/03/31 14:48:48;;;;;;;;;;;;;;;;;;5022466;28;19974;-80
2023/03/31 14:51:14;;;;;;;;;;;;;;;;;;5025652;28;19972;-79
2023/03/31 14:53:40;;;;;;;;;;;;;;;;;;5025193;28;20037;-78
2023/03/31 14:56:06;;;;;;;;;;;;;;;;;;5023826;28;19928;-78
2023/03/31 14:58:33;;;;;;;;;;;;;;;;;;5015145;28;20514;-78
2023/03/31 15:00:59;;;;;;;;;;;;;;;;;;5016255;28;20309;-80
2023/03/31 15:03:26;;;;;;;;;;;;;;;;;;5025688;28;20402;-79
2023/03/31 15:05:52;;;;;;;;;;;;;;;;;;5014689;28;20121;-80
2023/03/31 15:08:18;;;;;;;;;;;;;;;;;;5029875;28;20019;-79
2023/03/31 15:10:44;;;;;;;;;;;;;;;;;;5028315;28;19929;-80
2023/03/31 15:13:10;;;;;;;;;;;;;;;;;;5016698;28;19924;-80
2023/03/31 15:15:36;;;;;;;;;;;;;;;;;;5025384;28;19924;-81
2023/03/31 15:18:02;;;;;;;;;;;;;;;;;;5038593;28;21371;-80
2023/03/31 15:20:28;;;;;;;;;;;;;;;;;;5030679;28;20067;-78
2023/03/31 15:22:55;;;;;;;;;;;;;;;;;;5033928;28;20366;-79
2023/03/31 15:25:21;;;;;;;;;;;;;;;;;;5042620;28;19928;-79
2023/03/31 15:27:46;;;;;;;;;;;;;;;;;;5034346;28;21178;-81
2023/03/31 15:30:12;;;;;;;;;;;;;;;;;;5031359;28;19928;-80
2023/03/31 15:32:38;;;;;;;;;;;;;;;;;;5031758;28;19974;-80
2023/03/31 15:35:05;;;;;;;;;;;;;;;;;;5050903;28;20031;-80
2023/03/31 15:37:31;;;;;;;;;;;;;;;;;;5029225;28;19948;-79
2023/03/31 15:39:57;;;;;;;;;;;;;;;;;;5059805;28;19928;-79
2023/03/31 15:42:23;;;;;;;;;;;;;;;;;;5058335;28;19974;-80
2023/03/31 15:44:49;;;;;;;;;;;;;;;;;;5042530;28;19936;-80
2023/03/31 15:47:15;;;;;;;;;;;;;;;;;;5042973;28;19932;-80
2023/03/31 15:49:41;;;;;;;;;;;;;;;;;;5028750;28;19924;-80
2023/03/31 15:52:07;;;;;;;;;;;;;;;;;;5042757;28;19929;-80
2023/03/31 15:54:32;;;;;;;;;;;;;;;;;;5033935;28;19928;-79
2023/03/31 15:56:58;;;;;;;;;;;;;;;;;;5060482;28;20028;-78
2023/03/31 15:59:25;;;;;;;;;;;;;;;;;;5030572;28;19924;-79
2023/03/31 16:01:51;;;;;;;;;;;;;;;;;;5036681;28;19928;-80
2023/03/31 16:04:17;;;;;;;;;;;;;;;;;;5027001;28;19928;-80
2023/03/31 16:06:43;;;;;;;;;;;;;;;;;;5027980;28;20433;-80
2023/03/31 16:09:09;;;;;;;;;;;;;;;;;;5045440;28;20029;-78
2023/03/31 16:11:35;;;;;;;;;;;;;;;;;;5023589;28;19929;-78
2023/03/31 16:14:01;;;;;;;;;;;;;;;;;;5014867;28;19935;-79
2023/03/31 16:16:27;;;;;;;;;;;;;;;;;;5037426;28;19928;-79
2023/03/31 16:18:53;;;;;;;;;;;;;;;;;;5031985;28;20789;-79
2023/03/31 16:21:19;;;;;;;;;;;;;;;;;;5034728;28;20532;-79
2023/03/31 16:23:45;;;;;;;;;;;;;;;;;;5047341;28;19929;-80
2023/03/31 16:26:12;;;;;;;;;;;;;;;;;;5023959;28;19925;-78
2023/03/31 16:28:37;;;;;;;;;;;;;;;;;;5010547;28;19928;-79
2023/03/31 16:31:04;;;;;;;;;;;;;;;;;;5025802;28;19936;-78
2023/03/31 16:33:30;;;;;;;;;;;;;;;;;;5040577;28;20392;-79
2023/03/31 16:35:56;;;;;;;;;;;;;;;;;;5028264;28;19976;-80
2023/03/31 16:38:22;;;;;;;;;;;;;;;;;;5028436;28;19932;-79
2023/03/31 16:40:48;;;;;;;;;;;;;;;;;;5038157;28;20310;-79